Terminal Aerodrome Forecast
Issued by NWS

Home | Current Version | Previous Version | Text Only | Print | Product List | Glossary On
Versions: 1 2 3 4 5 6 7 8 9 10 11 12
000
FTUS42 TJSJ 011100
TAFKPK
TAF
TKPK 011139Z 0112/0212 09005KT P6SM FEW019
     FM011330 08011KT P6SM VCSH SCT022
     FM012300 09009KT P6SM FEW021=

USA.gov is the U.S. government's official web portal to all federal, state and local government web resources and services.